Time;durP1;ratioP1;P1;durP2;ratioP2;P2;SDS_P1;SDS_P2;PMS_P1;PMS_P2;Temp;Humidity;BMP_temperature;BMP_pressure;BME280_temperature;BME280_humidity;BME280_pressure;Samples;Min_cycle;Max_cycle;Signal;HPM_P1;HPM_P2
2023/03/08 00:01:23;;;;;;;30.70;27.70;;;;;;;3.88;74.02;96070.53;106903;1290;22675;-86
2023/03/08 00:03:56;;;;;;;31.50;28.00;;;;;;;3.84;74.27;96067.02;106716;1290;23327;-87
2023/03/08 00:06:25;;;;;;;28.60;25.50;;;;;;;3.83;74.06;96067.39;106399;1284;22679;-85
2023/03/08 00:08:58;;;;;;;28.40;25.60;;;;;;;3.85;74.36;96066.11;106256;1290;24090;-87
2023/03/08 00:11:27;;;;;;;26.60;24.10;;;;;;;3.89;74.87;96070.52;106226;1290;22609;-86
2023/03/08 00:13:56;;;;;;;28.40;25.50;;;;;;;3.90;74.74;96074.38;106317;1290;26546;-86
2023/03/08 00:16:24;;;;;;;27.80;25.00;;;;;;;3.87;74.33;96071.46;107046;1287;22549;-84
2023/03/08 00:18:52;;;;;;;30.00;26.80;;;;;;;3.89;74.39;96077.14;107361;1290;25456;-85
2023/03/08 00:21:21;;;;;;;28.00;25.30;;;;;;;3.86;74.17;96074.50;107405;1290;22555;-85
2023/03/08 00:23:52;;;;;;;29.70;26.90;;;;;;;3.84;74.46;96074.39;107811;1290;22642;-86
2023/03/08 00:26:21;;;;;;;31.20;28.20;;;;;;;3.86;74.61;96072.90;108034;1290;22579;-83
2023/03/08 00:28:49;;;;;;;30.20;26.90;;;;;;;3.91;75.63;96074.58;107396;1290;23004;-85
2023/03/08 00:31:17;;;;;;;31.20;28.00;;;;;;;3.90;75.23;96073.02;106879;1290;22504;-86
2023/03/08 00:33:46;;;;;;;30.70;27.60;;;;;;;3.92;75.07;96070.29;106505;1290;22608;-84
2023/03/08 00:36:18;;;;;;;32.60;29.40;;;;;;;3.90;74.78;96068.41;106289;1290;22650;-86
2023/03/08 00:43:38;;;;;;;29.00;26.20;;;;;;;3.85;75.13;96073.05;106147;1290;22548;-84
2023/03/08 00:46:06;;;;;;;31.40;28.20;;;;;;;3.87;75.92;96068.44;106197;1290;22702;-86
2023/03/08 00:48:34;;;;;;;33.00;29.80;;;;;;;3.85;75.47;96075.97;106215;1290;26585;-85
2023/03/08 00:51:02;;;;;;;33.30;30.00;;;;;;;3.85;75.33;96073.52;106186;1290;22647;-85
2023/03/08 00:53:30;;;;;;;33.50;30.20;;;;;;;3.83;74.98;96069.55;106136;1290;22771;-85
2023/03/08 00:55:59;;;;;;;30.20;27.30;;;;;;;3.84;75.76;96070.88;106170;1290;25384;-86
2023/03/08 00:58:31;;;;;;;30.80;28.00;;;;;;;3.87;76.17;96072.25;106187;1290;22555;-86
2023/03/08 01:00:59;;;;;;;29.60;26.80;;;;;;;3.88;75.90;96075.11;106179;1290;25309;-86
2023/03/08 01:03:29;;;;;;;31.60;28.50;;;;;;;3.88;75.49;96073.04;106176;1290;24225;-86
2023/03/08 01:05:58;;;;;;;33.30;30.10;;;;;;;3.86;75.60;96071.52;106075;1290;24214;-87
2023/03/08 01:08:26;;;;;;;28.90;26.20;;;;;;;3.83;75.69;96070.80;106246;1290;22653;-85
2023/03/08 01:10:57;;;;;;;29.50;26.80;;;;;;;3.86;76.82;96077.83;106181;1290;22723;-86
2023/03/08 01:13:31;;;;;;;31.30;28.50;;;;;;;3.87;76.17;96071.04;106312;1290;22547;-85
2023/03/08 01:16:00;;;;;;;32.90;29.50;;;;;;;3.85;75.91;96067.38;106593;1290;22553;-86
2023/03/08 01:18:28;;;;;;;32.40;29.30;;;;;;;3.83;75.86;96072.65;106457;1290;22656;-86
2023/03/08 01:21:03;;;;;;;30.60;27.70;;;;;;;3.80;75.88;96073.80;106556;1290;22559;-87
2023/03/08 01:23:31;;;;;;;28.70;26.10;;;;;;;3.84;76.82;96071.88;106303;1290;24079;-87
2023/03/08 01:26:06;;;;;;;30.00;27.20;;;;;;;3.83;76.90;96069.58;106234;1290;22645;-86
2023/03/08 01:28:34;;;;;;;30.30;27.50;;;;;;;3.84;76.37;96072.01;106209;1290;25257;-84
2023/03/08 01:31:11;;;;;;;32.50;29.50;;;;;;;3.78;76.10;96069.30;106251;1290;22664;-84
2023/03/08 01:33:41;;;;;;;30.40;27.60;;;;;;;3.75;76.59;96065.13;106032;1290;22671;-85
2023/03/08 01:36:12;;;;;;;29.50;26.60;;;;;;;3.76;77.44;96072.38;106175;1290;22948;-86
2023/03/08 01:38:40;;;;;;;31.70;28.90;;;;;;;3.77;77.42;96070.40;106054;1290;22648;-85
2023/03/08 01:41:25;;;;;;;34.70;31.60;;;;;;;3.74;76.69;96060.77;106056;1290;23266;-84
2023/03/08 01:43:54;;;;;;;32.60;29.60;;;;;;;3.71;76.59;96064.39;106261;1282;22531;-83
2023/03/08 01:46:28;;;;;;;33.00;30.00;;;;;;;3.67;76.58;96068.68;106194;1290;24245;-85
2023/03/08 01:49:06;;;;;;;30.20;27.50;;;;;;;3.69;77.26;96061.83;106182;1290;25368;-85
2023/03/08 01:51:49;;;;;;;33.40;30.20;;;;;;;3.71;77.76;96063.61;105912;1290;25810;-85
2023/03/08 01:54:28;;;;;;;38.80;35.40;;;;;;;3.70;77.54;96069.85;106086;1290;22575;-84
2023/03/08 01:57:04;;;;;;;33.20;30.10;;;;;;;3.65;77.25;96064.15;106193;1290;24263;-85
2023/03/08 01:59:34;;;;;;;31.00;28.20;;;;;;;3.60;77.01;96067.23;106479;1267;23069;-85
2023/03/08 02:02:03;;;;;;;29.10;26.60;;;;;;;3.60;77.72;96073.63;106251;1290;22689;-84
2023/03/08 02:04:32;;;;;;;38.00;34.60;;;;;;;3.60;77.41;96072.94;106203;1290;22929;-85
2023/03/08 02:07:00;;;;;;;33.50;30.50;;;;;;;3.57;77.55;96070.27;106218;1290;25137;-85
2023/03/08 02:09:28;;;;;;;35.60;32.60;;;;;;;3.56;77.53;96069.45;106205;1290;24140;-85
2023/03/08 02:12:02;;;;;;;32.60;29.80;;;;;;;3.51;77.30;96067.08;106212;1290;25368;-84
2023/03/08 02:14:30;;;;;;;32.60;29.80;;;;;;;3.52;77.71;96061.64;106203;1290;25512;-85
2023/03/08 02:16:59;;;;;;;30.10;27.40;;;;;;;3.52;78.12;96058.19;106120;1282;22749;-85
2023/03/08 02:19:48;;;;;;;33.00;30.10;;;;;;;3.49;77.59;96056.60;106104;1290;24326;-84
2023/03/08 02:22:17;;;;;;;35.80;32.70;;;;;;;3.45;77.33;96055.77;106146;1290;22544;-87
2023/03/08 02:24:46;;;;;;;33.40;30.40;;;;;;;3.42;77.31;96067.55;106299;1290;24264;-86
2023/03/08 02:27:22;;;;;;;30.70;27.90;;;;;;;3.44;77.82;96064.20;106257;1290;23453;-86
2023/03/08 02:29:51;;;;;;;31.80;29.00;;;;;;;3.43;78.02;96060.30;106202;1290;22577;-86
2023/03/08 02:32:19;;;;;;;36.10;32.80;;;;;;;3.40;77.67;96056.94;106248;1290;22550;-87
2023/03/08 02:34:47;;;;;;;45.50;41.60;;;;;;;3.35;77.58;96057.61;106181;1290;25276;-86
2023/03/08 02:37:15;;;;;;;37.80;34.40;;;;;;;3.32;77.26;96062.11;106125;1290;25293;-86
2023/03/08 02:39:43;;;;;;;31.10;27.90;;;;;;;3.32;77.91;96067.84;106172;1290;22611;-86
2023/03/08 02:42:11;;;;;;;31.30;28.50;;;;;;;3.37;78.54;96068.66;106189;1290;24443;-86
2023/03/08 02:44:42;;;;;;;31.10;28.30;;;;;;;3.35;77.99;96070.40;106124;1290;24220;-86
2023/03/08 02:47:10;;;;;;;36.60;33.00;;;;;;;3.32;77.69;96063.90;106245;1290;22702;-86
2023/03/08 02:49:38;;;;;;;33.90;31.00;;;;;;;3.29;77.37;96066.64;106197;1290;25258;-87
2023/03/08 02:52:08;;;;;;;30.30;27.30;;;;;;;3.25;77.53;96066.98;106067;1290;22663;-87
2023/03/08 02:54:36;;;;;;;30.00;27.30;;;;;;;3.25;78.25;96067.62;106272;1290;22925;-87
2023/03/08 02:57:32;;;;;;;29.20;26.60;;;;;;;3.27;78.44;96074.46;106225;1290;22540;-86
2023/03/08 03:00:01;;;;;;;30.10;27.30;;;;;;;3.24;77.86;96078.21;106218;1290;22537;-87
2023/03/08 03:02:31;;;;;;;32.00;29.10;;;;;;;3.21;77.49;96079.63;106333;1290;22543;-86
2023/03/08 03:05:03;;;;;;;28.40;25.80;;;;;;;3.17;77.44;96085.22;106276;1290;22887;-84
2023/03/08 03:07:35;;;;;;;28.70;25.90;;;;;;;3.15;77.52;96086.34;106346;1290;26547;-86
2023/03/08 03:10:04;;;;;;;29.20;26.50;;;;;;;3.16;77.80;96084.86;106306;1290;25338;-86
2023/03/08 03:12:33;;;;;;;28.20;25.50;;;;;;;3.17;77.67;96090.91;106416;1290;25446;-86
2023/03/08 03:15:05;;;;;;;32.00;29.00;;;;;;;3.15;77.52;96092.18;106284;1290;22570;-86
2023/03/08 03:17:35;;;;;;;30.80;28.00;;;;;;;3.13;77.27;96092.80;106297;1290;23917;-87
2023/03/08 03:20:08;;;;;;;28.30;25.70;;;;;;;3.12;77.13;96101.88;106379;1290;22540;-87
2023/03/08 03:22:36;;;;;;;28.80;26.00;;;;;;;3.15;77.82;96110.40;106702;1290;24244;-86
2023/03/08 03:25:07;;;;;;;31.00;28.00;;;;;;;3.17;77.75;96109.23;106734;1274;22580;-87
2023/03/08 03:27:35;;;;;;;29.40;26.60;;;;;;;3.16;76.89;96112.92;106577;1290;22585;-86
2023/03/08 03:30:06;;;;;;;29.20;26.40;;;;;;;3.13;76.78;96125.38;106331;1290;22661;-86
2023/03/08 03:32:35;;;;;;;28.50;25.70;;;;;;;3.13;76.75;96125.84;106989;1290;22613;-86
2023/03/08 03:35:07;;;;;;;26.20;23.80;;;;;;;3.13;77.04;96127.13;107171;1290;25914;-87
2023/03/08 03:37:36;;;;;;;27.60;24.90;;;;;;;3.17;77.17;96124.55;107210;1290;25581;-85
2023/03/08 03:40:05;;;;;;;30.80;27.80;;;;;;;3.18;76.99;96131.66;107108;1290;24716;-86
2023/03/08 03:42:34;;;;;;;27.20;24.60;;;;;;;3.18;76.65;96139.49;106731;1290;23771;-84
2023/03/08 03:45:10;;;;;;;29.30;26.60;;;;;;;3.17;76.18;96144.52;106842;1290;22649;-83
2023/03/08 03:47:39;;;;;;;28.20;25.70;;;;;;;3.14;75.91;96146.17;106811;1290;22553;-87
2023/03/08 03:50:09;;;;;;;27.00;24.50;;;;;;;3.13;75.91;96149.91;107162;1290;25513;-85
2023/03/08 03:52:49;;;;;;;25.20;22.90;;;;;;;3.13;76.26;96154.11;106646;1290;22553;-85
2023/03/08 03:55:17;;;;;;;25.80;23.20;;;;;;;3.22;76.09;96160.30;106907;1290;22548;-85
2023/03/08 03:57:46;;;;;;;25.70;23.10;;;;;;;3.25;75.30;96165.47;106827;1290;24240;-86
2023/03/08 04:00:18;;;;;;;23.00;20.80;;;;;;;3.26;74.33;96164.81;106917;1290;23938;-85
2023/03/08 04:02:51;;;;;;;25.00;22.40;;;;;;;3.25;73.78;96167.77;106748;1290;22538;-86
2023/03/08 04:05:20;;;;;;;23.00;20.80;;;;;;;3.24;73.45;96175.11;106898;1290;24310;-85
2023/03/08 04:07:51;;;;;;;22.30;20.10;;;;;;;3.22;73.59;96172.45;106318;1290;22648;-85
2023/03/08 04:10:20;;;;;;;20.80;18.90;;;;;;;3.21;73.39;96186.14;106223;1289;22537;-86
2023/03/08 04:12:51;;;;;;;22.30;20.00;;;;;;;3.23;73.09;96180.89;106115;1286;22621;-87
2023/03/08 04:15:20;;;;;;;21.70;19.80;;;;;;;3.26;72.88;96186.27;106271;1290;25512;-86
2023/03/08 04:17:50;;;;;;;22.80;20.60;;;;;;;3.26;72.42;96181.58;106284;1290;22964;-87
2023/03/08 04:20:20;;;;;;;21.90;19.50;;;;;;;3.25;72.10;96189.15;106320;1290;25337;-89
2023/03/08 04:22:53;;;;;;;24.20;21.70;;;;;;;3.24;71.80;96191.30;106710;1286;22540;-89
2023/03/08 04:25:26;;;;;;;21.20;19.20;;;;;;;3.21;71.96;96194.02;108355;1290;22577;-90
2023/03/08 04:27:58;;;;;;;24.20;20.20;;;;;;;3.17;71.91;96197.38;108192;1290;22898;-91
2023/03/08 04:30:26;;;;;;;23.10;20.80;;;;;;;3.18;71.64;96193.54;107382;1290;22572;-92
2023/03/08 04:32:55;;;;;;;20.90;18.90;;;;;;;3.20;72.27;96195.68;107142;1290;24241;-92
2023/03/08 04:35:26;;;;;;;22.00;20.00;;;;;;;3.23;72.19;96196.17;107081;1290;22569;-90
2023/03/08 04:37:55;;;;;;;21.70;19.40;;;;;;;3.23;72.03;96198.52;106477;1290;22542;-89
2023/03/08 04:40:25;;;;;;;21.40;19.40;;;;;;;3.19;71.87;96199.48;106426;1290;22562;-89
2023/03/08 04:42:57;;;;;;;20.50;18.50;;;;;;;3.17;71.55;96204.30;106315;1290;23004;-88
2023/03/08 04:45:31;;;;;;;21.00;19.10;;;;;;;3.15;70.96;96206.93;106409;1290;22565;-89
2023/03/08 04:48:01;;;;;;;20.80;18.70;;;;;;;3.11;70.95;96199.92;106383;1290;25516;-87
2023/03/08 04:50:30;;;;;;;20.90;18.90;;;;;;;3.09;71.07;96195.67;106565;1290;22908;-88
2023/03/08 04:52:58;;;;;;;19.80;17.80;;;;;;;3.07;71.11;96188.55;106931;1290;22675;-90
2023/03/08 04:55:27;;;;;;;19.70;17.70;;;;;;;3.09;71.68;96188.24;106760;1290;22533;-89
2023/03/08 04:57:56;;;;;;;20.60;18.50;;;;;;;3.10;71.65;96187.06;106681;1290;22498;-89
2023/03/08 05:00:25;;;;;;;19.70;17.80;;;;;;;3.08;71.03;96177.21;107410;1290;22550;-88
2023/03/08 05:02:53;;;;;;;24.80;19.30;;;;;;;3.08;70.93;96186.41;107074;1290;22575;-87
2023/03/08 05:05:24;;;;;;;21.70;19.50;;;;;;;3.05;70.76;96200.67;107473;1290;22760;-88
2023/03/08 05:07:52;;;;;;;21.70;19.50;;;;;;;3.03;70.57;96201.09;108120;1290;22501;-85
2023/03/08 05:10:21;;;;;;;22.50;20.30;;;;;;;3.00;70.45;96192.98;108201;1290;22537;-82
2023/03/08 05:12:50;;;;;;;21.40;19.40;;;;;;;2.98;70.41;96194.13;108019;1290;22589;-86
2023/03/08 05:15:18;;;;;;;50.60;33.60;;;;;;;2.98;70.30;96197.54;106925;1290;25420;-85
2023/03/08 05:17:46;;;;;;;56.10;29.70;;;;;;;2.95;70.47;96207.21;106786;1290;22911;-85
2023/03/08 05:20:15;;;;;;;50.20;28.50;;;;;;;3.00;70.74;96211.98;106848;1290;22585;-83
2023/03/08 05:22:44;;;;;;;33.60;23.60;;;;;;;3.02;70.56;96211.15;107865;1290;22669;-89
2023/03/08 05:25:31;;;;;;;21.90;19.40;;;;;;;3.01;70.50;96212.67;106983;1290;24208;-88
2023/03/08 05:28:00;;;;;;;33.80;25.30;;;;;;;3.02;69.90;96214.19;107989;1290;22520;-84
2023/03/08 05:30:32;;;;;;;28.60;24.50;;;;;;;2.98;69.83;96219.98;106779;1290;25649;-87
2023/03/08 05:33:01;;;;;;;26.70;23.60;;;;;;;2.95;69.91;96225.36;106140;1290;25412;-86
2023/03/08 05:35:29;;;;;;;25.10;22.60;;;;;;;2.90;70.11;96234.44;106299;1290;23954;-84
2023/03/08 05:37:58;;;;;;;23.80;21.60;;;;;;;2.88;70.00;96235.48;106410;1290;22795;-86
2023/03/08 05:40:26;;;;;;;20.80;18.90;;;;;;;2.85;69.92;96237.80;106160;1290;22562;-86
2023/03/08 05:42:56;;;;;;;28.20;25.50;;;;;;;2.87;70.70;96236.14;106159;1290;22541;-86
2023/03/08 05:45:25;;;;;;;40.70;37.10;;;;;;;2.93;70.90;96240.02;106288;1290;23727;-88
2023/03/08 05:47:54;;;;;;;40.00;35.90;;;;;;;2.95;70.60;96246.22;106162;1290;23627;-90
2023/03/08 05:50:23;;;;;;;22.90;20.70;;;;;;;2.95;70.07;96249.36;106534;1290;24774;-88
2023/03/08 05:52:52;;;;;;;24.60;22.00;;;;;;;2.93;70.03;96251.79;106482;1269;22673;-86
2023/03/08 05:55:23;;;;;;;25.70;23.30;;;;;;;2.90;70.34;96248.58;106445;1290;22834;-85
2023/03/08 05:57:51;;;;;;;31.10;28.00;;;;;;;2.90;69.88;96250.62;106282;1290;22599;-86
2023/03/08 06:00:21;;;;;;;31.40;28.40;;;;;;;2.88;69.90;96253.95;106288;1282;22594;-85
2023/03/08 06:02:50;;;;;;;25.40;23.10;;;;;;;2.89;69.94;96261.00;106298;1290;23250;-84
2023/03/08 06:05:19;;;;;;;177.50;122.40;;;;;;;2.89;69.69;96273.29;106241;1290;25484;-84
2023/03/08 06:07:47;;;;;;;27.20;24.40;;;;;;;2.87;69.78;96272.48;106142;1290;23281;-84
2023/03/08 06:10:16;;;;;;;23.70;21.20;;;;;;;2.90;70.52;96270.88;106285;1290;25447;-84
2023/03/08 06:12:44;;;;;;;23.60;21.50;;;;;;;2.95;71.02;96268.03;106197;1290;22578;-84
2023/03/08 06:15:14;;;;;;;22.60;20.40;;;;;;;2.97;70.59;96266.52;106220;1290;22578;-84
2023/03/08 06:17:42;;;;;;;21.90;19.80;;;;;;;2.98;70.30;96266.98;106146;1290;24080;-84
2023/03/08 06:20:11;;;;;;;28.30;25.30;;;;;;;2.98;70.15;96269.52;106321;1290;25675;-85
2023/03/08 06:22:42;;;;;;;27.70;24.20;;;;;;;2.98;69.95;96279.13;106236;1290;24414;-85
2023/03/08 06:25:10;;;;;;;30.30;27.50;;;;;;;2.98;69.88;96278.67;106059;1290;23236;-84
2023/03/08 06:27:39;;;;;;;25.90;23.40;;;;;;;3.02;69.26;96282.15;106283;1290;22611;-84
2023/03/08 06:30:29;;;;;;;24.50;22.10;;;;;;;3.03;69.76;96291.66;106174;1290;24296;-85
2023/03/08 06:32:57;;;;;;;25.30;22.80;;;;;;;3.04;69.49;96305.52;106281;1290;22584;-85
2023/03/08 06:35:26;;;;;;;25.70;23.40;;;;;;;3.05;69.49;96310.95;106295;1290;22541;-84
2023/03/08 06:37:57;;;;;;;24.10;21.60;;;;;;;3.06;69.19;96319.66;106496;1290;22611;-84
2023/03/08 06:40:25;;;;;;;20.40;18.30;;;;;;;3.05;69.15;96323.71;106269;1290;22610;-84
2023/03/08 06:42:54;;;;;;;29.30;26.50;;;;;;;3.09;70.04;96331.33;106293;1290;25305;-85
2023/03/08 06:45:22;;;;;;;24.30;20.90;;;;;;;3.14;70.07;96335.19;106230;1287;24071;-84
2023/03/08 06:47:50;;;;;;;21.30;19.10;;;;;;;3.15;69.65;96340.92;106231;1290;24285;-84
2023/03/08 06:50:19;;;;;;;21.40;19.30;;;;;;;3.15;69.02;96343.16;106185;1290;22663;-85
2023/03/08 06:52:48;;;;;;;25.80;23.00;;;;;;;3.14;69.03;96344.87;106218;1290;24410;-85
2023/03/08 06:55:19;;;;;;;24.00;21.70;;;;;;;3.12;68.85;96345.54;106115;1290;22583;-85
2023/03/08 06:57:47;;;;;;;21.30;19.10;;;;;;;3.13;68.59;96350.58;106152;1279;22783;-85
2023/03/08 07:00:15;;;;;;;21.30;19.20;;;;;;;3.11;68.68;96346.35;106233;1290;22641;-84
2023/03/08 07:02:43;;;;;;;22.90;20.60;;;;;;;3.11;68.71;96346.78;106215;1290;22600;-84
2023/03/08 07:05:11;;;;;;;22.70;20.40;;;;;;;3.12;68.70;96350.16;106191;1290;22541;-84
2023/03/08 07:07:40;;;;;;;21.10;19.00;;;;;;;3.13;68.25;96352.34;106212;1290;25457;-85
2023/03/08 07:10:10;;;;;;;21.30;19.30;;;;;;;3.12;68.67;96349.11;106237;1288;24037;-85
2023/03/08 07:12:39;;;;;;;25.50;23.20;;;;;;;3.13;68.56;96335.58;106235;1290;22637;-85
2023/03/08 07:15:08;;;;;;;23.20;21.10;;;;;;;3.14;68.58;96333.48;106240;1269;22703;-85
2023/03/08 07:17:36;;;;;;;24.10;21.90;;;;;;;3.18;68.09;96335.45;106230;1290;23945;-85
2023/03/08 07:20:05;;;;;;;24.30;21.80;;;;;;;3.20;68.25;96343.36;106441;1267;22573;-84
2023/03/08 07:22:33;;;;;;;24.40;22.00;;;;;;;3.20;68.55;96354.00;106194;1290;22549;-83
2023/03/08 07:25:01;;;;;;;23.50;21.30;;;;;;;3.22;68.65;96351.70;106271;1290;22537;-85
2023/03/08 07:27:29;;;;;;;34.80;31.70;;;;;;;3.22;68.59;96347.63;106127;1290;24367;-83
2023/03/08 07:29:57;;;;;;;21.30;19.10;;;;;;;3.27;68.51;96354.70;106234;1290;22671;-84
2023/03/08 07:32:27;;;;;;;26.30;23.80;;;;;;;3.37;68.08;96347.88;106220;1290;22738;-84
2023/03/08 07:34:57;;;;;;;20.90;18.90;;;;;;;3.45;67.71;96357.02;106515;1290;24238;-85
2023/03/08 07:37:25;;;;;;;20.90;19.00;;;;;;;3.51;67.80;96364.45;106220;1290;25362;-85
2023/03/08 07:39:53;;;;;;;22.20;19.90;;;;;;;3.57;67.65;96359.66;106341;1290;25325;-84
2023/03/08 07:42:22;;;;;;;21.20;19.30;;;;;;;3.65;67.59;96364.16;106191;1290;22547;-84
2023/03/08 07:44:56;;;;;;;20.80;18.70;;;;;;;3.73;67.55;96361.23;106221;1290;24409;-85
2023/03/08 07:47:24;;;;;;;27.80;25.30;;;;;;;3.76;67.22;96368.98;106182;1290;22550;-85
2023/03/08 07:49:52;;;;;;;26.20;20.80;;;;;;;3.80;66.94;96368.61;106294;1290;22604;-85
2023/03/08 07:52:20;;;;;;;45.50;31.30;;;;;;;3.83;66.83;96366.32;106319;1290;23162;-84
2023/03/08 07:54:48;;;;;;;25.20;22.00;;;;;;;3.95;67.19;96374.42;106677;1290;23268;-90
2023/03/08 07:57:16;;;;;;;55.40;28.60;;;;;;;4.08;67.16;96375.33;106532;1290;25254;-84
2023/03/08 07:59:44;;;;;;;36.80;25.20;;;;;;;4.17;66.55;96372.07;106545;1290;22573;-84
2023/03/08 08:02:13;;;;;;;25.50;21.50;;;;;;;4.21;65.89;96384.95;106575;1290;25396;-85
2023/03/08 08:04:42;;;;;;;25.80;23.10;;;;;;;4.18;66.05;96385.30;106278;1290;22657;-84
2023/03/08 08:07:13;;;;;;;23.90;21.50;;;;;;;4.17;66.04;96387.85;106277;1290;22539;-84
2023/03/08 08:09:41;;;;;;;23.90;21.60;;;;;;;4.17;66.23;96392.71;106128;1290;22594;-84
2023/03/08 08:12:09;;;;;;;20.50;18.40;;;;;;;4.17;65.79;96388.45;106395;1290;22537;-84
2023/03/08 08:14:37;;;;;;;20.00;18.00;;;;;;;4.18;65.74;96393.77;106423;1290;25411;-84
2023/03/08 08:17:05;;;;;;;20.40;18.30;;;;;;;4.20;65.90;96399.11;106280;1290;23325;-84
2023/03/08 08:19:33;;;;;;;19.70;18.00;;;;;;;4.21;65.72;96400.09;106240;1290;22661;-84
2023/03/08 08:22:05;;;;;;;19.30;17.10;;;;;;;4.23;66.00;96387.09;106242;1290;22747;-85
2023/03/08 08:24:33;;;;;;;20.20;18.20;;;;;;;4.25;65.83;96381.80;106268;1290;22742;-85
2023/03/08 08:27:01;;;;;;;26.00;22.80;;;;;;;4.27;65.90;96373.60;106165;1290;22805;-85
2023/03/08 08:29:30;;;;;;;26.10;23.50;;;;;;;4.32;65.89;96366.30;106253;1290;25463;-84
2023/03/08 08:31:58;;;;;;;25.00;22.20;;;;;;;4.39;65.76;96367.02;106239;1290;22594;-85
2023/03/08 08:34:26;;;;;;;23.20;20.10;;;;;;;4.43;65.81;96371.42;106467;1290;22862;-83
2023/03/08 08:36:55;;;;;;;21.40;19.50;;;;;;;4.47;65.69;96372.20;106088;1290;25305;-84
2023/03/08 08:39:23;;;;;;;28.70;25.90;;;;;;;4.51;65.33;96377.02;106313;1290;22665;-85
2023/03/08 08:41:51;;;;;;;20.40;18.50;;;;;;;4.55;65.20;96379.78;106274;1290;24255;-84
2023/03/08 08:44:19;;;;;;;23.20;20.90;;;;;;;4.60;64.82;96374.46;106301;1290;22550;-85
2023/03/08 08:46:47;;;;;;;20.30;18.40;;;;;;;4.66;64.88;96371.14;106382;1290;23603;-85
2023/03/08 08:49:15;;;;;;;19.50;17.60;;;;;;;4.72;64.12;96368.63;106748;1290;22626;-85
2023/03/08 08:51:43;;;;;;;22.70;20.60;;;;;;;4.78;63.93;96365.30;106776;1290;22549;-82
2023/03/08 08:54:12;;;;;;;30.00;27.10;;;;;;;4.92;63.91;96366.81;107287;1290;22832;-86
2023/03/08 08:56:41;;;;;;;29.70;26.70;;;;;;;5.04;63.36;96364.02;107019;1290;22553;-85
2023/03/08 08:59:11;;;;;;;25.30;22.70;;;;;;;5.11;63.39;96358.23;106598;1290;22533;-83
2023/03/08 09:01:42;;;;;;;24.30;20.70;;;;;;;5.20;63.09;96366.25;106238;1290;22559;-85
2023/03/08 09:04:12;;;;;;;24.50;22.10;;;;;;;5.21;62.70;96361.37;106330;1290;25525;-84
2023/03/08 09:06:40;;;;;;;17.30;15.70;;;;;;;5.20;62.01;96362.58;106312;1290;24236;-84
2023/03/08 09:09:09;;;;;;;22.00;18.40;;;;;;;5.21;61.75;96359.23;106315;1290;22642;-85
2023/03/08 09:11:36;;;;;;;17.80;16.20;;;;;;;5.38;61.95;96365.11;106478;1290;23374;-84
2023/03/08 09:14:21;;;;;;;24.70;19.40;;;;;;;5.52;61.56;96361.90;106240;1290;22661;-84
2023/03/08 09:16:51;;;;;;;18.90;16.90;;;;;;;5.58;61.11;96372.70;106292;1290;22549;-82
2023/03/08 09:19:19;;;;;;;20.50;18.50;;;;;;;5.53;61.08;96363.96;106309;1290;22546;-83
2023/03/08 09:21:47;;;;;;;20.40;18.00;;;;;;;5.52;61.20;96371.41;106340;1290;23111;-85
2023/03/08 09:24:15;;;;;;;21.10;19.10;;;;;;;5.51;60.76;96371.73;106356;1290;25257;-85
2023/03/08 09:26:44;;;;;;;24.50;22.10;;;;;;;5.45;60.58;96370.02;106243;1290;22689;-84
2023/03/08 09:29:12;;;;;;;19.30;17.00;;;;;;;5.45;60.67;96369.31;106259;1290;23950;-83
2023/03/08 09:31:41;;;;;;;51.60;46.40;;;;;;;5.57;60.58;96374.66;105820;1290;22675;-83
2023/03/08 09:34:12;;;;;;;19.20;17.20;;;;;;;5.60;60.11;96382.01;106460;1290;23904;-84
2023/03/08 09:36:41;;;;;;;17.60;15.10;;;;;;;5.61;59.77;96385.45;106282;1290;24266;-85
2023/03/08 09:39:11;;;;;;;19.60;16.50;;;;;;;5.69;59.06;96388.04;106179;1286;24230;-85
2023/03/08 09:42:17;;;;;;;16.40;14.90;;;;;;;5.71;59.00;96379.52;106188;1290;22545;-84
2023/03/08 09:45:03;;;;;;;16.80;15.10;;;;;;;5.79;59.29;96384.23;106172;1290;22541;-84
2023/03/08 09:47:52;;;;;;;17.70;16.00;;;;;;;5.87;59.16;96385.23;106227;1290;22549;-84
2023/03/08 09:50:31;;;;;;;21.10;18.90;;;;;;;5.92;58.37;96378.80;106257;1290;22767;-85
2023/03/08 09:53:18;;;;;;;18.70;16.70;;;;;;;5.93;58.55;96376.80;106245;1290;25362;-87
2023/03/08 09:56:02;;;;;;;18.70;16.10;;;;;;;5.94;58.17;96376.46;106184;1290;24230;-85
2023/03/08 09:58:50;;;;;;;18.50;16.70;;;;;;;6.07;58.04;96368.42;106255;1290;23924;-85
2023/03/08 10:01:23;;;;;;;18.10;16.20;;;;;;;6.15;57.93;96367.37;105895;1290;26637;-87
2023/03/08 10:04:10;;;;;;;18.10;16.30;;;;;;;6.23;57.44;96372.16;106263;1290;25510;-84
2023/03/08 10:06:38;;;;;;;15.70;14.20;;;;;;;6.21;57.19;96370.54;106211;1290;22541;-85
2023/03/08 10:09:35;;;;;;;18.80;16.90;;;;;;;6.25;57.03;96361.95;106351;1290;22540;-85
2023/03/08 10:12:23;;;;;;;19.40;16.20;;;;;;;6.45;56.78;96358.34;106129;1290;25445;-86
2023/03/08 10:15:07;;;;;;;17.40;15.70;;;;;;;6.65;56.06;96360.70;106202;1290;22566;-86
2023/03/08 10:18:17;;;;;;;18.30;16.50;;;;;;;6.67;56.25;96355.23;106289;1290;23176;-85
2023/03/08 10:20:50;;;;;;;23.20;20.80;;;;;;;6.85;56.37;96360.50;106338;1290;22697;-86
2023/03/08 10:23:21;;;;;;;20.90;18.70;;;;;;;6.96;56.60;96357.65;103988;1290;3035215;-86
2023/03/08 10:25:50;;;;;;;20.20;18.20;;;;;;;7.02;55.95;96351.91;106262;1290;23935;-84
2023/03/08 10:28:23;;;;;;;18.90;17.10;;;;;;;7.07;55.99;96350.70;106425;1289;25530;-84
2023/03/08 10:30:58;;;;;;;22.20;20.00;;;;;;;7.16;55.27;96352.64;106310;1290;24265;-85
2023/03/08 10:33:34;;;;;;;18.20;15.10;;;;;;;7.28;55.61;96347.77;106215;1290;23258;-86
2023/03/08 10:36:19;;;;;;;21.20;17.60;;;;;;;7.35;55.52;96343.75;106306;1290;22635;-86
2023/03/08 10:38:57;;;;;;;20.70;18.50;;;;;;;7.35;55.29;96345.67;106246;1290;22540;-86
2023/03/08 10:41:28;;;;;;;17.80;16.00;;;;;;;7.29;54.45;96341.92;106281;1290;22562;-86
2023/03/08 10:43:56;;;;;;;19.80;17.90;;;;;;;7.25;54.46;96345.36;106451;1290;22540;-85
2023/03/08 10:46:29;;;;;;;25.40;23.10;;;;;;;7.14;54.57;96337.41;106230;1290;22574;-84
2023/03/08 10:49:18;;;;;;;18.80;16.80;;;;;;;7.12;54.44;96339.09;106251;1290;24359;-85
2023/03/08 10:51:56;;;;;;;24.30;21.80;;;;;;;7.18;55.10;96345.26;106284;1290;22538;-86
2023/03/08 10:54:26;;;;;;;24.00;21.50;;;;;;;7.10;55.96;96338.02;106484;1290;25593;-85
2023/03/08 10:56:54;;;;;;;24.90;22.50;;;;;;;7.12;56.26;96330.42;106304;1290;22604;-85
2023/03/08 10:59:31;;;;;;;23.60;21.40;;;;;;;7.10;56.46;96329.77;106294;1290;24363;-85
2023/03/08 11:02:17;;;;;;;24.70;22.30;;;;;;;7.06;56.64;96336.15;106490;1290;22865;-85
2023/03/08 11:04:55;;;;;;;24.30;22.00;;;;;;;6.96;56.91;96342.03;106460;1290;25492;-85
2023/03/08 11:07:30;;;;;;;25.30;23.00;;;;;;;6.92;57.24;96334.59;106388;1290;25343;-85
2023/03/08 11:10:10;;;;;;;;;;;;;;;6.82;56.69;96334.13;106363;1290;22852;-85
2023/03/08 11:12:38;;;;;;;26.20;23.90;;;;;;;6.71;57.06;96325.41;106354;1290;25365;-85
2023/03/08 11:15:19;;;;;;;24.40;22.20;;;;;;;6.68;57.69;96321.48;107808;1290;22708;-85
2023/03/08 11:17:56;;;;;;;26.10;23.70;;;;;;;6.69;57.82;96320.30;109578;1290;22567;-83
2023/03/08 11:20:40;;;;;;;23.50;21.20;;;;;;;6.69;57.56;96315.13;109578;1290;22485;-84
2023/03/08 11:23:18;;;;;;;16.40;14.80;;;;;;;6.68;56.54;96319.96;107976;1290;22633;-86
2023/03/08 11:25:54;;;;;;;20.40;18.60;;;;;;;6.66;55.70;96318.70;106520;1290;22579;-84
2023/03/08 11:28:38;;;;;;;18.00;16.30;;;;;;;6.64;55.91;96313.41;106738;1290;25433;-85
2023/03/08 11:31:06;;;;;;;19.90;18.10;;;;;;;6.64;56.16;96313.81;106543;1290;24764;-85
2023/03/08 11:34:02;;;;;;;15.30;13.80;;;;;;;6.67;55.99;96313.31;106394;1290;25419;-83
2023/03/08 11:36:54;;;;;;;20.50;16.50;;;;;;;6.67;55.37;96310.52;106240;1290;22533;-85
2023/03/08 11:39:31;;;;;;;16.50;15.00;;;;;;;6.63;55.07;96306.63;106267;1290;22643;-85
2023/03/08 11:42:15;;;;;;;18.40;16.50;;;;;;;6.59;55.32;96304.27;106314;1290;22656;-83